Time;durP1;ratioP1;P1;durP2;ratioP2;P2;SDS_P1;SDS_P2;PMS_P1;PMS_P2;Temp;Humidity;BMP_temperature;BMP_pressure;BME280_temperature;BME280_humidity;BME280_pressure;Samples;Min_cycle;Max_cycle;Signal;HPM_P1;HPM_P2
2021/12/17 00:08:37;;;;;;;235.75;182.68;;;20.60;49.60;;;;;;4867906;55;20998;-40
2021/12/17 00:13:42;;;;;;;230.40;179.77;;;20.60;49.50;;;;;;4978049;55;21591;-38
2021/12/17 00:19:00;;;;;;;229.32;176.65;;;20.60;49.50;;;;;;4829920;55;21556;-39
2021/12/17 00:40:25;;;;;;;213.75;162.10;;;20.60;49.50;;;;;;4748012;55;21104;-41
2021/12/17 00:51:49;;;;;;;220.80;170.15;;;20.50;49.40;;;;;;4889134;54;21014;-40
2021/12/17 00:56:53;;;;;;;216.73;165.82;;;20.50;49.40;;;;;;4862638;55;21531;-42
2021/12/17 01:01:57;;;;;;;207.05;158.23;;;20.50;49.40;;;;;;4753013;55;21042;-39
2021/12/17 01:06:58;;;;;;;216.52;163.50;;;20.50;49.30;;;;;;4878400;55;21109;-41
2021/12/17 01:11:59;;;;;;;206.70;156.70;;;20.50;49.40;;;;;;5051091;55;21005;-38
2021/12/17 01:17:01;;;;;;;205.62;157.55;;;20.50;49.30;;;;;;4748321;58;21002;-40
2021/12/17 01:45:52;;;;;;;198.15;150.75;;;20.50;49.30;;;;;;4752740;54;21017;-37
2021/12/17 02:01:45;;;;;;;189.93;144.98;;;20.40;49.30;;;;;;5162071;54;21025;-40
2021/12/17 02:06:46;;;;;;;186.55;143.13;;;20.40;49.20;;;;;;4748020;58;21005;-39
2021/12/17 02:12:44;;;;;;;191.80;146.37;;;20.40;49.30;;;;;;5234306;54;21065;-41
2021/12/17 02:37:55;;;;;;;175.75;137.57;;;20.40;49.10;;;;;;4826814;55;21030;-36
2021/12/17 02:48:33;;;;;;;175.65;137.10;;;20.40;49.10;;;;;;4769122;54;21475;-40
2021/12/17 02:53:33;;;;;;;174.25;135.15;;;20.40;49.10;;;;;;4749350;55;21504;-39
2021/12/17 02:58:36;;;;;;;172.85;130.77;;;20.40;49.10;;;;;;4989521;55;21054;-39
2021/12/17 03:03:40;;;;;;;165.35;130.10;;;20.40;49.10;;;;;;5234477;55;21006;-38
2021/12/17 03:08:41;;;;;;;163.60;127.40;;;20.40;49.10;;;;;;4963172;55;21582;-39
2021/12/17 03:13:44;;;;;;;164.98;127.50;;;20.40;49.00;;;;;;5090629;55;21517;-37
2021/12/17 03:19:01;;;;;;;160.70;127.05;;;20.40;49.10;;;;;;4796681;55;21532;-48
2021/12/17 03:24:03;;;;;;;162.98;127.15;;;20.40;49.10;;;;;;4765132;55;21599;-40
2021/12/17 03:29:07;;;;;;;163.77;129.18;;;20.30;49.00;;;;;;4760800;55;21045;-35
2021/12/17 03:34:18;;;;;;;153.65;120.25;;;20.30;49.00;;;;;;4747524;58;21025;-41
2021/12/17 03:39:19;;;;;;;149.30;116.25;;;20.30;49.00;;;;;;4819286;55;21579;-39
2021/12/17 03:44:20;;;;;;;154.82;120.13;;;20.30;49.00;;;;;;5109936;55;21057;-37
2021/12/17 03:49:23;;;;;;;154.82;122.25;;;20.30;49.00;;;;;;4770893;55;21025;-39
2021/12/17 03:54:23;;;;;;;147.40;114.65;;;20.30;49.00;;;;;;5165304;55;21563;-41
2021/12/17 03:59:24;;;;;;;147.77;116.22;;;20.30;48.90;;;;;;4762666;54;21013;-37
2021/12/17 04:04:25;;;;;;;150.50;117.60;;;20.30;48.90;;;;;;4793860;54;20997;-39
2021/12/17 04:09:29;;;;;;;139.15;108.25;;;20.30;49.00;;;;;;4824549;54;20989;-37
2021/12/17 04:14:41;;;;;;;145.55;112.82;;;20.30;49.00;;;;;;4793599;55;21524;-39
2021/12/17 04:19:42;;;;;;;146.23;117.05;;;20.30;48.90;;;;;;4860717;55;21575;-39
2021/12/17 04:24:43;;;;;;;134.05;104.90;;;20.30;48.90;;;;;;4959279;54;21065;-40
2021/12/17 04:29:43;;;;;;;131.40;104.97;;;20.30;48.90;;;;;;4767478;55;21061;-37
2021/12/17 04:34:44;;;;;;;137.82;109.07;;;20.30;49.00;;;;;;4748329;58;20993;-34
2021/12/17 04:39:45;;;;;;;134.32;107.30;;;20.30;48.90;;;;;;4777487;55;21045;-41
2021/12/17 04:44:53;;;;;;;135.90;107.28;;;20.30;48.50;;;;;;4935205;54;21009;-40
2021/12/17 05:00:33;;;;;;;129.68;103.12;;;20.30;48.90;;;;;;4748198;55;21074;-39
2021/12/17 05:05:35;;;;;;;132.32;105.70;;;20.30;49.00;;;;;;4895757;54;21588;-37
2021/12/17 05:22:19;;;;;;;121.70;98.10;;;20.20;49.00;;;;;;4748065;55;21069;-38
2021/12/17 05:27:20;;;;;;;119.50;96.20;;;20.30;49.00;;;;;;5014935;54;21560;-40
2021/12/17 05:32:20;;;;;;;122.80;99.40;;;20.20;49.00;;;;;;4934022;55;21061;-42
2021/12/17 05:37:21;;;;;;;121.25;95.35;;;20.20;49.10;;;;;;4769855;55;21029;-47
2021/12/17 05:42:23;;;;;;;118.82;93.87;;;20.20;49.10;;;;;;4928904;54;21476;-39
2021/12/17 05:47:24;;;;;;;117.35;92.70;;;20.20;49.10;;;;;;4814323;55;21511;-39
2021/12/17 05:52:24;;;;;;;112.97;93.53;;;20.20;49.20;;;;;;4778280;55;21010;-38
2021/12/17 05:57:25;;;;;;;112.35;90.38;;;20.20;49.30;;;;;;4787030;54;21090;-36
2021/12/17 06:02:26;;;;;;;111.47;88.53;;;20.20;49.40;;;;;;4858253;54;21440;-38
2021/12/17 06:07:29;;;;;;;108.93;89.82;;;20.20;49.40;;;;;;4912564;55;21535;-39
2021/12/17 06:12:30;;;;;;;104.50;85.18;;;20.20;49.50;;;;;;4818310;55;21005;-39
2021/12/17 06:17:31;;;;;;;105.90;84.68;;;20.20;49.50;;;;;;4979185;55;21009;-38
2021/12/17 06:22:33;;;;;;;109.28;88.87;;;20.20;49.70;;;;;;5087748;55;20997;-37
2021/12/17 06:27:35;;;;;;;106.55;84.45;;;20.20;49.70;;;;;;4851000;55;21049;-39
2021/12/17 06:32:36;;;;;;;105.97;85.55;;;20.20;49.70;;;;;;4750943;55;21480;-38
2021/12/17 06:37:38;;;;;;;105.70;83.32;;;20.20;50.30;;;;;;4953334;55;21001;-39
2021/12/17 06:42:39;;;;;;;103.30;84.32;;;20.20;49.70;;;;;;4748472;58;21520;-40
2021/12/17 06:47:40;;;;;;;102.45;84.37;;;20.20;49.70;;;;;;5233999;55;21555;-37
2021/12/17 06:59:36;;;;;;;99.55;79.90;;;20.20;49.70;;;;;;4747912;55;21081;-41
2021/12/17 07:10:15;;;;;;;101.62;81.15;;;20.20;49.70;;;;;;4747831;55;21140;-39
2021/12/17 07:35:26;;;;;;;94.10;76.87;;;20.10;49.50;;;;;;4814199;54;21030;-39
2021/12/17 07:40:27;;;;;;;95.30;78.20;;;20.10;49.50;;;;;;4748246;58;21496;-38
2021/12/17 07:45:28;;;;;;;101.18;79.40;;;20.10;49.50;;;;;;4875345;55;21026;-40
2021/12/17 07:50:29;;;;;;;95.75;77.25;;;20.20;49.60;;;;;;4850426;55;21655;-40
2021/12/17 07:55:30;;;;;;;94.80;78.35;;;20.20;49.60;;;;;;4747387;58;21027;-41
2021/12/17 08:00:32;;;;;;;95.78;76.50;;;20.10;49.50;;;;;;4745960;55;21034;-45
2021/12/17 08:05:33;;;;;;;95.70;76.25;;;20.20;49.80;;;;;;4890765;55;21026;-40
2021/12/17 08:10:33;;;;;;;90.57;74.28;;;20.20;49.70;;;;;;4743116;58;21500;-35
2021/12/17 08:15:43;;;;;;;95.70;74.55;;;20.30;49.90;;;;;;4743670;58;21069;-35
2021/12/17 08:26:10;;;;;;;94.35;75.32;;;20.40;50.50;;;;;;4746795;55;21562;-37
2021/12/17 08:31:11;;;;;;;95.82;73.95;;;20.40;50.90;;;;;;4795516;55;21496;-36
2021/12/17 08:36:12;;;;;;;99.65;76.90;;;20.50;51.10;;;;;;4930409;54;21062;-36
2021/12/17 08:41:14;;;;;;;103.25;78.87;;;20.50;51.40;;;;;;4818035;54;21085;-34
2021/12/17 08:46:15;;;;;;;100.60;78.65;;;20.50;51.50;;;;;;4778256;55;21495;-34
2021/12/17 08:51:16;;;;;;;97.55;76.37;;;20.60;51.80;;;;;;4791993;55;21006;-32
2021/12/17 08:56:20;;;;;;;103.75;80.07;;;20.60;51.80;;;;;;4747143;58;20982;-36
2021/12/17 09:01:21;;;;;;;106.82;81.32;;;20.70;52.00;;;;;;4747769;58;21444;-37
2021/12/17 09:06:26;;;;;;;110.47;83.90;;;20.70;52.10;;;;;;4768415;55;20970;-34
2021/12/17 09:11:28;;;;;;;112.60;84.05;;;20.70;52.20;;;;;;5072306;55;21496;-35
2021/12/17 09:16:30;;;;;;;115.93;86.10;;;20.70;52.30;;;;;;4754790;55;20997;-36
2021/12/17 09:21:31;;;;;;;116.35;89.10;;;20.80;52.40;;;;;;4876880;55;20986;-38
2021/12/17 09:26:35;;;;;;;121.37;93.78;;;20.80;52.50;;;;;;4747260;58;21033;-34
2021/12/17 09:31:36;;;;;;;122.85;93.78;;;20.80;52.70;;;;;;4747657;58;21019;-35
2021/12/17 09:36:37;;;;;;;124.40;94.53;;;20.90;52.60;;;;;;4926356;55;21124;-35
2021/12/17 09:41:43;;;;;;;125.85;92.88;;;21.10;52.50;;;;;;4837493;55;21069;-37
2021/12/17 09:46:47;;;;;;;129.23;97.00;;;21.10;52.20;;;;;;4911577;55;21555;-36
2021/12/17 09:51:48;;;;;;;123.62;92.35;;;21.20;52.00;;;;;;4749308;55;21062;-36
2021/12/17 09:56:49;;;;;;;137.82;101.38;;;21.20;51.80;;;;;;4747196;58;21112;-36
2021/12/17 10:01:50;;;;;;;133.15;102.00;;;21.30;51.90;;;;;;4766222;54;20999;-34
2021/12/17 10:06:51;;;;;;;129.65;100.12;;;21.30;51.50;;;;;;4747819;58;21076;-38
2021/12/17 10:12:06;;;;;;;133.35;101.70;;;21.40;51.40;;;;;;4747669;58;21116;-38
2021/12/17 10:17:12;;;;;;;128.90;101.07;;;21.40;51.20;;;;;;4851275;55;21564;-32
2021/12/17 10:22:15;;;;;;;133.90;101.82;;;21.50;51.10;;;;;;4747246;58;21022;-38
2021/12/17 10:27:25;;;;;;;134.80;104.22;;;21.50;50.80;;;;;;4746886;58;21085;-37
2021/12/17 10:32:27;;;;;;;134.68;102.95;;;21.50;51.40;;;;;;4762129;55;21000;-37
2021/12/17 10:37:34;;;;;;;138.60;102.45;;;21.50;50.80;;;;;;4747904;58;21594;-35
2021/12/17 10:42:39;;;;;;;142.48;105.82;;;21.60;50.70;;;;;;4793999;55;20989;-40
2021/12/17 10:47:47;;;;;;;146.65;108.93;;;21.60;50.60;;;;;;5165835;55;21564;-37
2021/12/17 10:52:55;;;;;;;136.65;103.12;;;21.60;50.40;;;;;;4755638;55;21468;-37
2021/12/17 10:58:02;;;;;;;148.57;112.62;;;21.60;50.40;;;;;;4796886;55;21495;-35
2021/12/17 11:03:03;;;;;;;145.70;109.23;;;21.60;50.40;;;;;;4894877;55;21504;-35
2021/12/17 11:08:19;;;;;;;150.98;115.03;;;21.60;50.40;;;;;;4779548;55;21477;-36
2021/12/17 11:13:20;;;;;;;151.27;116.32;;;21.70;50.50;;;;;;4871096;55;21087;-36
2021/12/17 11:18:25;;;;;;;162.55;121.37;;;21.70;50.50;;;;;;4860983;55;21005;-36
2021/12/17 11:23:28;;;;;;;164.90;121.62;;;21.70;50.50;;;;;;4824470;55;21058;-39
2021/12/17 11:28:29;;;;;;;162.90;122.15;;;21.80;50.50;;;;;;4868383;55;21535;-33
2021/12/17 11:33:30;;;;;;;159.30;121.20;;;21.80;50.50;;;;;;5016871;55;21101;-29
2021/12/17 11:39:16;;;;;;;164.52;125.40;;;21.80;50.50;;;;;;4828071;55;21540;-35
2021/12/17 11:44:20;;;;;;;165.63;127.17;;;21.80;50.50;;;;;;4805207;55;21021;-33
2021/12/17 11:49:24;;;;;;;168.00;125.85;;;21.90;50.60;;;;;;4783085;55;21021;-35
2021/12/17 11:54:33;;;;;;;170.68;128.93;;;21.90;50.60;;;;;;4746929;59;21559;-35
2021/12/17 11:59:37;;;;;;;173.62;132.77;;;21.90;50.60;;;;;;4794645;55;21022;-38
2021/12/17 12:04:59;;;;;;;177.15;133.87;;;22.00;50.60;;;;;;4934760;55;21520;-38
2021/12/17 12:10:26;;;;;;;177.52;134.90;;;22.10;50.70;;;;;;4995571;55;21456;-40
2021/12/17 12:15:31;;;;;;;183.90;139.15;;;22.00;50.90;;;;;;4838688;54;20997;-36
2021/12/17 12:21:33;;;;;;;174.73;131.50;;;22.10;51.00;;;;;;4847403;55;21079;-38
2021/12/17 12:26:42;;;;;;;183.40;140.35;;;22.00;50.70;;;;;;4760022;55;21105;-39
2021/12/17 12:31:45;;;;;;;187.05;143.65;;;22.00;50.60;;;;;;4908121;55;21009;-36
2021/12/17 12:37:24;;;;;;;183.12;140.25;;;22.00;50.70;;;;;;5099873;55;21081;-37
2021/12/17 12:42:29;;;;;;;195.18;148.70;;;22.00;50.50;;;;;;4767297;55;20985;-38
2021/12/17 12:48:03;;;;;;;189.10;142.95;;;22.00;50.40;;;;;;4819064;55;21000;-40
2021/12/17 12:53:11;;;;;;;195.18;148.18;;;22.00;50.40;;;;;;4748528;55;21074;-35
2021/12/17 12:58:18;;;;;;;192.62;149.60;;;22.00;50.20;;;;;;4928839;55;21464;-37
2021/12/17 13:03:23;;;;;;;;;;;22.10;50.20;;;;;;4904281;55;21112;-35
2021/12/17 13:08:25;;;;;;;189.23;144.07;;;22.10;50.30;;;;;;4748012;58;20132;-35
2021/12/17 13:13:34;;;;;;;194.32;149.45;;;22.20;50.50;;;;;;4771556;55;21556;-34
2021/12/17 13:24:41;;;;;;;188.98;148.00;;;22.20;50.70;;;;;;4770325;55;21086;-37
2021/12/17 13:29:44;;;;;;;194.27;151.30;;;22.30;50.90;;;;;;4895865;54;21010;-30
2021/12/17 13:34:52;;;;;;;198.65;153.45;;;22.30;51.10;;;;;;4748312;58;21466;-34
2021/12/17 13:40:03;;;;;;;192.77;149.05;;;22.30;51.20;;;;;;4747969;55;21559;-35
2021/12/17 13:45:13;;;;;;;195.02;152.80;;;22.30;51.20;;;;;;5021082;55;21046;-38
2021/12/17 13:51:15;;;;;;;200.62;153.18;;;22.30;51.30;;;;;;4895014;55;21001;-36
2021/12/17 13:56:17;;;;;;;194.27;150.35;;;22.40;51.50;;;;;;4782243;55;20993;-39
2021/12/17 14:01:22;;;;;;;198.27;152.30;;;22.40;51.50;;;;;;4788650;55;21029;-38
2021/12/17 14:06:35;;;;;;;196.00;150.20;;;22.40;51.50;;;;;;4755274;55;21254;-38
2021/12/17 14:11:36;;;;;;;194.70;152.85;;;22.40;51.60;;;;;;4763517;55;21049;-38
2021/12/17 14:16:41;;;;;;;196.32;154.25;;;22.40;51.60;;;;;;4747283;55;21061;-39
2021/12/17 14:21:45;;;;;;;189.30;149.50;;;22.50;51.80;;;;;;4747706;58;21030;-45
2021/12/17 14:26:47;;;;;;;202.18;160.88;;;22.50;51.90;;;;;;4821810;55;21046;-34
2021/12/17 14:31:58;;;;;;;200.60;157.68;;;22.50;51.90;;;;;;4771359;55;21552;-35
2021/12/17 14:37:03;;;;;;;201.25;158.05;;;22.40;51.90;;;;;;4902510;55;21001;-33
2021/12/17 14:42:07;;;;;;;197.23;152.43;;;22.30;52.00;;;;;;4747990;55;21037;-37
2021/12/17 14:47:29;;;;;;;202.87;160.32;;;22.30;52.10;;;;;;4783424;55;21460;-38
2021/12/17 14:59:30;;;;;;;199.82;158.05;;;22.10;52.00;;;;;;4747699;55;21084;-38
2021/12/17 15:04:31;;;;;;;195.40;154.52;;;22.00;51.90;;;;;;5027748;55;21460;-39
2021/12/17 15:09:33;;;;;;;197.57;156.37;;;21.90;51.80;;;;;;4748312;55;21025;-37
2021/12/17 15:14:34;;;;;;;204.35;160.27;;;21.90;51.70;;;;;;4934974;55;21491;-38
2021/12/17 15:19:35;;;;;;;204.68;159.27;;;21.80;51.70;;;;;;4748170;54;21081;-44
2021/12/17 15:24:35;;;;;;;203.05;157.98;;;21.70;51.60;;;;;;4747495;58;21025;-39
2021/12/17 15:29:36;;;;;;;203.93;162.10;;;21.70;51.70;;;;;;5180359;55;21511;-41
2021/12/17 15:34:37;;;;;;;198.30;158.27;;;21.60;51.80;;;;;;4835024;55;21017;-39
2021/12/17 15:39:38;;;;;;;209.35;165.93;;;21.60;51.70;;;;;;4964654;55;21077;-39
2021/12/17 15:44:38;;;;;;;205.82;160.05;;;21.50;51.70;;;;;;4747621;58;21519;-37
2021/12/17 15:49:39;;;;;;;201.43;161.45;;;21.50;51.80;;;;;;4871034;55;21006;-40
2021/12/17 15:54:41;;;;;;;204.25;161.45;;;21.40;51.70;;;;;;5083604;55;20997;-40
2021/12/17 15:59:45;;;;;;;198.57;159.68;;;21.40;51.70;;;;;;4853203;55;21005;-38
2021/12/17 16:04:47;;;;;;;193.20;155.45;;;21.30;51.60;;;;;;4901641;55;21476;-34
2021/12/17 16:27:33;;;;;;;196.63;154.98;;;21.20;51.50;;;;;;4868964;54;21041;-46
2021/12/17 16:32:35;;;;;;;199.30;159.27;;;21.20;51.50;;;;;;5234796;55;21551;-30
2021/12/17 16:37:36;;;;;;;195.45;155.00;;;21.10;51.50;;;;;;4763691;55;21018;-34
2021/12/17 16:42:37;;;;;;;194.43;152.55;;;21.10;51.40;;;;;;4777295;55;21065;-32
2021/12/17 16:47:38;;;;;;;190.57;152.73;;;21.10;51.40;;;;;;4873528;55;21014;-37
2021/12/17 16:52:39;;;;;;;188.77;152.52;;;21.10;51.40;;;;;;4870395;55;21077;-37
2021/12/17 16:57:41;;;;;;;192.52;151.05;;;21.10;51.40;;;;;;4779513;55;21077;-32
2021/12/17 17:02:42;;;;;;;192.98;154.55;;;21.10;51.40;;;;;;4820841;55;21460;-34
2021/12/17 17:07:43;;;;;;;192.13;151.70;;;21.00;51.30;;;;;;4816156;55;21014;-35
2021/12/17 17:12:46;;;;;;;187.95;150.87;;;21.00;51.30;;;;;;4747326;58;21583;-36
2021/12/17 17:17:49;;;;;;;189.62;152.52;;;21.00;51.30;;;;;;4849848;55;21648;-38
2021/12/17 17:22:50;;;;;;;187.07;149.52;;;21.00;51.30;;;;;;4780946;55;21013;-33
2021/12/17 17:27:52;;;;;;;191.75;151.43;;;21.00;51.20;;;;;;4879844;54;21022;-40
2021/12/17 17:32:52;;;;;;;186.65;148.35;;;20.90;51.10;;;;;;4792514;55;21021;-38
2021/12/17 17:37:53;;;;;;;190.80;152.15;;;21.00;51.60;;;;;;4790238;54;21065;-33
2021/12/17 17:42:54;;;;;;;182.98;146.60;;;20.90;51.20;;;;;;4827021;54;21006;-38
2021/12/17 17:47:55;;;;;;;187.62;149.68;;;20.90;51.10;;;;;;4809336;54;21079;-32
2021/12/17 17:52:56;;;;;;;181.90;146.52;;;20.90;51.00;;;;;;4780955;54;21542;-39
2021/12/17 17:57:57;;;;;;;179.68;145.85;;;20.90;51.00;;;;;;4774094;55;21040;-39
2021/12/17 18:02:58;;;;;;;177.70;142.87;;;20.90;51.00;;;;;;4748293;58;20998;-36
2021/12/17 18:07:59;;;;;;;180.57;142.55;;;20.80;50.90;;;;;;4973966;54;21026;-36
2021/12/17 18:13:02;;;;;;;179.65;142.62;;;20.90;51.00;;;;;;4843494;55;21488;-39
2021/12/17 18:18:03;;;;;;;175.60;141.88;;;20.80;50.90;;;;;;4806866;55;21587;-36
2021/12/17 18:23:04;;;;;;;176.00;144.90;;;20.80;50.90;;;;;;4908023;55;21544;-35
2021/12/17 18:28:08;;;;;;;177.70;141.65;;;20.80;50.90;;;;;;4748321;55;21013;-34
2021/12/17 18:33:09;;;;;;;176.25;140.60;;;20.80;50.80;;;;;;4748365;55;21093;-35
2021/12/17 18:38:10;;;;;;;165.62;138.00;;;20.80;50.80;;;;;;4922560;55;21046;-36
2021/12/17 18:48:31;;;;;;;171.70;138.50;;;20.80;50.70;;;;;;4747959;55;21061;-33
2021/12/17 18:53:32;;;;;;;169.40;137.05;;;20.80;50.70;;;;;;4781386;55;21488;-37
2021/12/17 18:58:33;;;;;;;169.00;134.90;;;20.80;50.70;;;;;;4793260;54;21062;-37
2021/12/17 19:03:34;;;;;;;164.62;130.80;;;20.80;50.70;;;;;;4967741;54;20994;-36
2021/12/17 19:08:34;;;;;;;168.52;135.70;;;20.70;50.50;;;;;;4907687;54;21061;-38
2021/12/17 19:13:36;;;;;;;164.77;134.23;;;20.70;50.50;;;;;;4828312;55;21026;-37
2021/12/17 19:18:51;;;;;;;166.12;134.10;;;20.70;50.50;;;;;;4912714;55;21483;-35
2021/12/17 19:23:52;;;;;;;162.32;131.77;;;20.70;50.50;;;;;;4754231;55;21571;-36
2021/12/17 19:28:55;;;;;;;162.93;130.52;;;20.70;50.40;;;;;;4795066;54;20994;-36
2021/12/17 19:33:56;;;;;;;157.57;130.57;;;20.70;50.40;;;;;;4747548;58;21583;-35
2021/12/17 19:38:58;;;;;;;156.68;128.25;;;20.70;50.40;;;;;;5234196;54;21002;-36
2021/12/17 19:43:59;;;;;;;154.82;124.38;;;20.70;50.40;;;;;;4868883;55;21013;-32
2021/12/17 19:49:44;;;;;;;160.95;130.93;;;20.70;50.40;;;;;;4851866;55;20986;-37
2021/12/17 19:54:48;;;;;;;154.77;126.50;;;20.70;50.30;;;;;;4776004;55;21575;-36
2021/12/17 19:59:49;;;;;;;154.73;127.05;;;20.60;50.30;;;;;;4933187;55;21001;-35
2021/12/17 20:04:50;;;;;;;151.93;127.07;;;20.70;50.30;;;;;;4824139;55;20993;-36
2021/12/17 20:09:51;;;;;;;151.05;124.15;;;20.70;50.20;;;;;;4977743;54;21096;-38
2021/12/17 20:14:52;;;;;;;149.25;123.90;;;20.60;50.20;;;;;;4907297;54;21480;-34
2021/12/17 20:19:52;;;;;;;145.68;121.15;;;20.60;50.10;;;;;;4843620;54;21001;-34
2021/12/17 20:24:54;;;;;;;155.32;128.18;;;20.60;50.10;;;;;;4755026;54;21500;-36
2021/12/17 20:29:54;;;;;;;148.18;121.57;;;20.60;50.10;;;;;;4854791;55;21520;-36
2021/12/17 20:34:57;;;;;;;150.70;122.85;;;20.60;50.00;;;;;;4791399;55;21074;-35
2021/12/17 20:39:57;;;;;;;149.62;122.80;;;20.60;50.00;;;;;;5065266;55;20997;-34
2021/12/17 20:45:01;;;;;;;148.95;120.45;;;20.60;50.00;;;;;;4752222;55;21057;-37
2021/12/17 20:50:04;;;;;;;139.98;116.22;;;20.60;49.90;;;;;;4813406;55;21453;-34
2021/12/17 20:55:09;;;;;;;139.05;114.82;;;20.60;49.90;;;;;;4785878;55;21492;-37
2021/12/17 21:00:30;;;;;;;144.27;120.37;;;20.60;49.90;;;;;;5012356;55;21472;-36
2021/12/17 21:05:32;;;;;;;139.70;116.95;;;20.50;49.80;;;;;;4748436;58;20985;-32
2021/12/17 21:10:37;;;;;;;141.50;118.57;;;20.60;49.90;;;;;;4782385;55;21551;-38
2021/12/17 21:15:42;;;;;;;138.52;113.97;;;20.50;49.80;;;;;;5036704;55;21001;-37
2021/12/17 21:20:45;;;;;;;140.30;115.93;;;20.50;49.80;;;;;;4878621;55;20986;-37
2021/12/17 21:25:48;;;;;;;139.25;113.72;;;20.50;49.80;;;;;;4913911;55;21029;-37
2021/12/17 21:30:49;;;;;;;136.07;114.97;;;20.50;49.70;;;;;;4793476;55;20982;-33
2021/12/17 21:35:51;;;;;;;133.00;113.20;;;20.50;50.00;;;;;;4834183;55;21054;-36
2021/12/17 21:40:52;;;;;;;134.50;111.12;;;20.50;49.60;;;;;;4748729;58;21577;-35
2021/12/17 21:45:53;;;;;;;132.63;110.00;;;20.50;49.60;;;;;;4748307;58;21001;-35
2021/12/17 21:50:53;;;;;;;133.18;111.30;;;20.50;49.60;;;;;;4747974;58;21010;-37
2021/12/17 21:55:54;;;;;;;131.63;108.10;;;20.50;49.50;;;;;;4842023;55;21484;-37
2021/12/17 22:00:56;;;;;;;131.12;109.22;;;20.50;49.50;;;;;;4748434;58;21527;-36
2021/12/17 22:05:59;;;;;;;127.62;106.53;;;20.50;49.50;;;;;;4888112;55;21460;-36
2021/12/17 22:11:04;;;;;;;121.87;101.90;;;20.50;49.50;;;;;;4748217;58;21018;-35
2021/12/17 22:16:07;;;;;;;120.82;102.30;;;20.50;49.40;;;;;;4776729;55;21070;-36
2021/12/17 22:21:11;;;;;;;121.82;98.00;;;20.50;49.40;;;;;;4789121;54;21037;-35
2021/12/17 22:26:12;;;;;;;120.30;100.10;;;20.50;49.40;;;;;;4813412;55;21579;-36
2021/12/17 22:31:13;;;;;;;117.40;98.43;;;20.50;49.40;;;;;;4779604;55;21006;-38
2021/12/17 22:36:14;;;;;;;116.20;97.45;;;20.50;49.30;;;;;;4908658;54;21117;-33
2021/12/17 22:41:42;;;;;;;122.53;100.62;;;20.40;49.20;;;;;;4861296;55;21468;-35
2021/12/17 22:46:44;;;;;;;117.35;97.18;;;20.40;49.20;;;;;;4897178;55;21551;-34
2021/12/17 22:51:45;;;;;;;113.45;95.93;;;20.40;48.60;;;;;;4764677;55;21049;-40
2021/12/17 22:56:46;;;;;;;111.53;94.40;;;20.40;49.10;;;;;;4806476;54;21232;-40
2021/12/17 23:01:47;;;;;;;113.72;93.03;;;20.40;49.10;;;;;;4790153;55;21002;-40
2021/12/17 23:06:52;;;;;;;111.82;92.55;;;20.40;49.00;;;;;;5048322;55;20993;-41
2021/12/17 23:12:05;;;;;;;111.93;92.40;;;20.40;49.00;;;;;;4779363;55;21479;-41
2021/12/17 23:17:06;;;;;;;105.55;88.18;;;20.40;49.00;;;;;;4787943;55;20986;-38
2021/12/17 23:22:07;;;;;;;109.45;91.80;;;20.40;49.00;;;;;;4748588;55;21006;-39
2021/12/17 23:27:08;;;;;;;107.10;87.75;;;20.40;49.00;;;;;;4847852;54;21025;-37
2021/12/17 23:32:10;;;;;;;108.45;89.62;;;20.40;48.90;;;;;;4964305;55;21045;-40
2021/12/17 23:37:12;;;;;;;103.68;87.97;;;20.40;48.90;;;;;;4930306;55;21508;-40
2021/12/17 23:42:18;;;;;;;98.30;81.72;;;20.40;48.90;;;;;;4837708;55;20997;-39
2021/12/17 23:47:19;;;;;;;99.73;84.00;;;20.40;48.90;;;;;;4868168;55;21484;-35
2021/12/17 23:52:20;;;;;;;100.93;83.00;;;20.40;48.90;;;;;;4822336;55;21018;-39
2021/12/17 23:57:21;;;;;;;98.07;81.10;;;20.40;48.80;;;;;;4748080;58;21062;-38
